createdAt,value
2022-11-20T00:00:05.661Z,98102.56
2022-11-20T00:05:27.374Z,98095.72
2022-11-20T00:10:49.051Z,98093.72
2022-11-20T00:16:12.727Z,98092.72
2022-11-20T00:21:34.446Z,98092.34
2022-11-20T00:26:56.137Z,98098.31
2022-11-20T00:32:17.897Z,98088.81
2022-11-20T00:37:39.616Z,98086.28
2022-11-20T00:43:01.311Z,98090.03
2022-11-20T00:48:23.002Z,98079.16
2022-11-20T00:53:45.465Z,98087.81
2022-11-20T00:59:07.239Z,98077.75
2022-11-20T01:04:28.989Z,98086.44
2022-11-20T01:09:50.682Z,98086.31
2022-11-20T01:15:12.372Z,98088.97
2022-11-20T01:20:37.656Z,98092.63
2022-11-20T01:26:01.829Z,98099.16
2022-11-20T01:31:29.541Z,98104.34
2022-11-20T01:36:52.161Z,98110.00
2022-11-20T01:42:32.560Z,98101.91
2022-11-20T01:47:54.253Z,98107.13
2022-11-20T01:53:19.505Z,98108.94
2022-11-20T01:58:48.453Z,98098.69
2022-11-20T02:04:11.407Z,98101.25
2022-11-20T02:09:33.117Z,98101.16
2022-11-20T02:14:54.895Z,98103.25
2022-11-20T02:20:16.816Z,98110.06
2022-11-20T02:25:40.233Z,98113.22
2022-11-20T02:31:01.955Z,98108.66
2022-11-20T02:36:27.279Z,98111.66
2022-11-20T02:41:48.981Z,98110.75
2022-11-20T02:47:11.009Z,98102.25
2022-11-20T02:52:32.882Z,98108.19
2022-11-20T02:57:54.544Z,98102.16
2022-11-20T03:03:16.255Z,98113.97
2022-11-20T03:08:37.953Z,98110.06
2022-11-20T03:14:03.258Z,98114.09
2022-11-20T03:19:25.037Z,98103.25
2022-11-20T03:24:46.999Z,98104.03
2022-11-20T03:30:09.368Z,98086.31
2022-11-20T03:35:31.082Z,98085.41
2022-11-20T03:40:59.472Z,98075.44
2022-11-20T03:46:21.541Z,98083.06
2022-11-20T03:51:43.249Z,98081.22
2022-11-20T03:57:04.904Z,98077.16
2022-11-20T04:02:26.559Z,98076.16
2022-11-20T04:07:48.231Z,98083.47
2022-11-20T04:13:09.892Z,98078.03
2022-11-20T04:18:31.584Z,98082.53
2022-11-20T04:23:54.887Z,98084.72
2022-11-20T04:29:16.527Z,98080.47
2022-11-20T04:34:38.208Z,98075.28
2022-11-20T04:39:59.901Z,98084.59
2022-11-20T04:45:22.155Z,98080.34
2022-11-20T04:50:43.807Z,98076.47
2022-11-20T04:56:10.785Z,98081.81
2022-11-20T05:01:33.517Z,98077.09
2022-11-20T05:06:55.281Z,98076.69
2022-11-20T05:12:16.978Z,98075.75
2022-11-20T05:17:38.657Z,98075.94
2022-11-20T05:23:00.324Z,98068.91
2022-11-20T05:28:22.761Z,98067.00
2022-11-20T05:33:45.635Z,98064.75
2022-11-20T05:39:07.373Z,98069.13
2022-11-20T05:44:29.056Z,98074.06
2022-11-20T05:49:50.724Z,98067.09
2022-11-20T05:55:12.409Z,98062.44
2022-11-20T06:00:34.073Z,98070.56
2022-11-20T06:05:55.725Z,98066.44
2022-11-20T06:11:18.113Z,98068.63
2022-11-20T06:16:39.792Z,98067.97
2022-11-20T06:22:01.509Z,98067.53
2022-11-20T06:27:23.208Z,98052.78
2022-11-20T06:32:44.912Z,98055.38
2022-11-20T06:38:06.597Z,98054.03
2022-11-20T06:43:29.827Z,98050.28
2022-11-20T06:48:51.978Z,98057.59
2022-11-20T06:54:13.639Z,98060.78
2022-11-20T06:59:35.316Z,98059.44
2022-11-20T07:04:56.998Z,98071.25
2022-11-20T07:10:18.695Z,98073.44
2022-11-20T07:15:40.435Z,98076.28
2022-11-20T07:21:03.813Z,98071.31
2022-11-20T07:26:25.531Z,98074.28
2022-11-20T07:31:47.309Z,98086.28
2022-11-20T07:37:10.500Z,98082.50
2022-11-20T07:42:32.428Z,98084.19
2022-11-20T07:47:54.133Z,98080.97
2022-11-20T07:53:21.751Z,98082.56
2022-11-20T07:58:43.487Z,98085.09
2022-11-20T08:04:05.263Z,98095.34
2022-11-20T08:09:26.933Z,98093.84
2022-11-20T08:14:48.613Z,98108.09
2022-11-20T08:20:10.629Z,98109.94
2022-11-20T08:25:34.361Z,98105.59
2022-11-20T08:31:03.795Z,98114.91
2022-11-20T08:36:26.019Z,98109.78
2022-11-20T08:41:47.708Z,98112.56
2022-11-20T08:47:09.400Z,98103.47
2022-11-20T08:52:32.580Z,98103.72
2022-11-20T08:57:56.143Z,98111.75
2022-11-20T09:03:17.933Z,98113.28
2022-11-20T09:08:40.377Z,98118.47
2022-11-20T09:14:03.654Z,98118.78
2022-11-20T09:19:35.487Z,98122.91
2022-11-20T09:24:57.689Z,98130.72
2022-11-20T09:30:19.511Z,98130.81
2022-11-20T09:35:41.207Z,98139.78
2022-11-20T09:41:18.592Z,98142.31
2022-11-20T09:47:02.458Z,98153.16
2022-11-20T09:52:42.590Z,98143.81
2022-11-20T09:58:08.398Z,98158.03
2022-11-20T10:04:14.678Z,98146.13
2022-11-20T10:09:40.049Z,98150.47
2022-11-20T10:15:07.479Z,98149.66
2022-11-20T10:21:02.397Z,98159.47
2022-11-20T10:26:38.229Z,98163.09
2022-11-20T10:32:08.635Z,98168.72
2022-11-20T10:37:34.857Z,98185.34
2022-11-20T10:43:14.466Z,98172.13
2022-11-20T10:48:37.407Z,98177.31
2022-11-20T10:54:06.575Z,98166.38
2022-11-20T10:59:48.723Z,98161.34
2022-11-20T11:05:45.344Z,98148.41
2022-11-20T11:11:28.320Z,98150.69
2022-11-20T11:16:59.191Z,98146.63
2022-11-20T11:22:20.894Z,98137.50
2022-11-20T11:27:51.031Z,98121.63
2022-11-20T11:33:20.785Z,98107.44
2022-11-20T11:38:44.089Z,98103.47
2022-11-20T11:44:38.152Z,98090.91
2022-11-20T11:50:09.420Z,98094.19
2022-11-20T11:55:50.172Z,98077.56
2022-11-20T12:01:37.323Z,98074.31
2022-11-20T12:07:24.292Z,98074.97
2022-11-20T12:12:53.212Z,98078.84
2022-11-20T12:18:21.085Z,98065.81
2022-11-20T12:23:46.735Z,98061.50
2022-11-20T12:29:15.152Z,98061.69
2022-11-20T12:35:01.199Z,98047.28
2022-11-20T12:40:55.870Z,98051.66
2022-11-20T12:46:31.148Z,98062.34
2022-11-20T12:52:16.668Z,98060.16
2022-11-20T12:57:48.360Z,98054.97
2022-11-20T13:03:10.057Z,98054.97
2022-11-20T13:08:37.674Z,98053.47
2022-11-20T13:14:12.187Z,98061.66
2022-11-20T13:19:34.541Z,98062.34
2022-11-20T13:24:56.317Z,98048.44
2022-11-20T13:30:20.821Z,98042.47
2022-11-20T13:35:43.557Z,98032.44
2022-11-20T13:41:25.376Z,98027.31
2022-11-20T13:46:48.132Z,98032.50
2022-11-20T13:52:38.778Z,98031.19
2022-11-20T13:58:03.136Z,98025.97
2022-11-20T14:03:51.233Z,98039.31
2022-11-20T14:09:32.700Z,98025.81
2022-11-20T14:14:55.408Z,98028.31
2022-11-20T14:20:19.753Z,98029.63
2022-11-20T14:25:45.976Z,98022.72
2022-11-20T14:31:26.015Z,98032.03
2022-11-20T14:36:48.304Z,98029.53
2022-11-20T14:42:22.784Z,98018.75
2022-11-20T14:47:45.248Z,98014.63
2022-11-20T14:53:26.372Z,98008.69
2022-11-20T14:58:57.187Z,97990.38
2022-11-20T15:04:18.894Z,97984.88
2022-11-20T15:09:40.609Z,97984.25
2022-11-20T15:15:04.265Z,97968.81
2022-11-20T15:20:31.023Z,97974.84
2022-11-20T15:25:52.844Z,97976.81
2022-11-20T15:31:16.980Z,97965.16
2022-11-20T15:36:39.444Z,97968.28
2022-11-20T15:42:01.129Z,97983.97
2022-11-20T15:47:30.808Z,97957.06
2022-11-20T15:52:52.592Z,97964.66
2022-11-20T15:58:14.430Z,97954.78
2022-11-20T16:03:36.256Z,97951.69
2022-11-20T16:08:57.954Z,97956.44
2022-11-20T16:14:38.279Z,97945.25
2022-11-20T16:19:59.990Z,97942.56
2022-11-20T16:25:21.666Z,97945.34
2022-11-20T16:30:43.394Z,97935.34
2022-11-20T16:36:13.515Z,97932.00
2022-11-20T16:41:35.456Z,97930.97
2022-11-20T16:46:57.124Z,97924.25
2022-11-20T16:52:18.837Z,97916.72
2022-11-20T16:57:42.545Z,97918.03
2022-11-20T17:03:05.605Z,97918.88
2022-11-20T17:08:30.420Z,97906.63
2022-11-20T17:13:52.745Z,97908.47
2022-11-20T17:19:14.851Z,97901.41
2022-11-20T17:24:36.631Z,97898.38
2022-11-20T17:29:58.994Z,97898.28
2022-11-20T17:35:20.647Z,97895.88
2022-11-20T17:40:42.299Z,97891.97
2022-11-20T17:46:09.209Z,97886.97
2022-11-20T17:51:34.869Z,97882.69
2022-11-20T17:57:15.036Z,97880.28
2022-11-20T18:02:36.750Z,97868.09
2022-11-20T18:07:58.397Z,97859.44
2022-11-20T18:13:20.105Z,97854.72
2022-11-20T18:18:41.766Z,97853.69
2022-11-20T18:24:03.718Z,97843.81
2022-11-20T18:29:26.703Z,97842.91
2022-11-20T18:34:49.126Z,97829.31
2022-11-20T18:40:11.513Z,97824.47
2022-11-20T18:45:33.205Z,97815.84
2022-11-20T18:50:54.917Z,97826.91
2022-11-20T18:56:16.614Z,97816.56
2022-11-20T19:01:39.028Z,97816.81
2022-11-20T19:07:01.067Z,97808.75
2022-11-20T19:12:22.857Z,97803.78
2022-11-20T19:17:44.606Z,97808.16
2022-11-20T19:23:06.410Z,97808.09
2022-11-20T19:28:31.436Z,97800.47
2022-11-20T19:33:54.792Z,97792.34
2022-11-20T19:39:16.908Z,97791.47
2022-11-20T19:44:38.647Z,97786.19
2022-11-20T19:50:00.350Z,97781.84
2022-11-20T19:55:22.166Z,97779.97
2022-11-20T20:00:43.946Z,97774.59
2022-11-20T20:06:14.406Z,97779.81
2022-11-20T20:11:36.631Z,97776.19
2022-11-20T20:16:58.380Z,97772.66
2022-11-20T20:22:20.290Z,97773.88
2022-11-20T20:27:42.027Z,97773.59
2022-11-20T20:33:03.847Z,97773.78
2022-11-20T20:38:25.602Z,97779.06
2022-11-20T20:44:06.389Z,97787.88
2022-11-20T20:49:28.073Z,97782.41
2022-11-20T20:54:49.863Z,97776.75
2022-11-20T21:00:11.860Z,97787.13
2022-11-20T21:05:33.573Z,97794.84
2022-11-20T21:11:00.737Z,97790.75
2022-11-20T21:16:22.495Z,97796.97
2022-11-20T21:21:58.999Z,97803.84
2022-11-20T21:27:20.667Z,97812.47
2022-11-20T21:32:42.347Z,97806.56
2022-11-20T21:38:04.285Z,97787.00
2022-11-20T21:43:26.032Z,97783.22
2022-11-20T21:48:48.039Z,97785.63
2022-11-20T21:54:10.530Z,97796.97
2022-11-20T21:59:32.230Z,97810.72
2022-11-20T22:04:53.916Z,97805.72
2022-11-20T22:10:18.640Z,97811.41
2022-11-20T22:15:59.893Z,97809.34
2022-11-20T22:21:24.352Z,97815.03
2022-11-20T22:26:46.402Z,97800.63
2022-11-20T22:32:08.063Z,97815.22
2022-11-20T22:37:29.809Z,97818.88
2022-11-20T22:42:51.581Z,97817.66
2022-11-20T22:48:13.288Z,97812.97
2022-11-20T22:53:35.665Z,97815.75
2022-11-20T22:58:57.500Z,97811.91
2022-11-20T23:04:19.252Z,97820.59
2022-11-20T23:09:40.938Z,97824.41
2022-11-20T23:15:02.656Z,97809.97
2022-11-20T23:20:24.390Z,97806.63
2022-11-20T23:25:46.126Z,97811.03
2022-11-20T23:31:09.187Z,97808.41
2022-11-20T23:36:30.880Z,97813.94
2022-11-20T23:41:52.519Z,97822.44
2022-11-20T23:47:14.180Z,97820.59
2022-11-20T23:52:36.117Z,97820.16
2022-11-20T23:57:58.248Z,97823.59
